Time;durP1;ratioP1;P1;durP2;ratioP2;P2;SDS_P1;SDS_P2;PMS_P1;PMS_P2;Temp;Humidity;BMP_temperature;BMP_pressure;BME280_temperature;BME280_humidity;BME280_pressure;Samples;Min_cycle;Max_cycle;Signal;HPM_P1;HPM_P2
2021/11/07 00:01:05;;;;;;;11.30;10.20;;;6.00;99.90;;;;;;10236092;23;20259;-78
2021/11/07 00:06:12;;;;;;;10.50;9.67;;;5.90;99.90;;;;;;10313878;28;20203;-79
2021/11/07 00:11:23;;;;;;;11.63;10.53;;;5.90;99.90;;;;;;10314197;28;20230;-78
2021/11/07 00:16:28;;;;;;;10.30;9.40;;;5.90;99.90;;;;;;10307423;28;20230;-78
2021/11/07 00:21:32;;;;;;;10.23;9.33;;;5.90;99.90;;;;;;10328879;28;20257;-79
2021/11/07 00:26:44;;;;;;;11.07;10.07;;;5.90;99.90;;;;;;10282514;28;20271;-79
2021/11/07 00:31:51;;;;;;;9.60;8.80;;;5.90;99.90;;;;;;10298456;28;20302;-79
2021/11/07 00:36:56;;;;;;;10.53;9.63;;;5.80;99.90;;;;;;10287953;28;20712;-79
2021/11/07 00:42:06;;;;;;;8.90;8.00;;;5.80;99.90;;;;;;10286027;28;20667;-78
2021/11/07 00:47:22;;;;;;;11.90;10.83;;;5.90;99.90;;;;;;10272302;28;20678;-79
2021/11/07 00:52:32;;;;;;;10.33;9.43;;;5.90;99.90;;;;;;10280118;28;20225;-79
2021/11/07 00:57:48;;;;;;;10.43;9.43;;;5.90;99.90;;;;;;10277162;28;20310;-79
2021/11/07 01:02:53;;;;;;;10.27;9.37;;;5.90;99.90;;;;;;10277483;28;20235;-79
2021/11/07 01:07:55;;;;;;;11.43;10.33;;;5.90;99.90;;;;;;10293086;28;20196;-79
2021/11/07 01:12:59;;;;;;;10.60;9.70;;;5.80;99.90;;;;;;10279961;28;20685;-78
2021/11/07 01:18:01;;;;;;;9.23;8.47;;;5.80;99.90;;;;;;10278387;28;20515;-79
2021/11/07 01:23:12;;;;;;;9.47;8.50;;;5.70;99.90;;;;;;10279482;28;20285;-78
2021/11/07 01:28:17;;;;;;;10.30;9.40;;;5.70;99.90;;;;;;10284853;28;20751;-79
2021/11/07 01:33:22;;;;;;;10.53;9.50;;;5.60;99.90;;;;;;10281319;28;20234;-79
2021/11/07 01:38:27;;;;;;;10.47;9.57;;;5.50;99.90;;;;;;10282448;28;20735;-79
2021/11/07 01:43:31;;;;;;;11.23;10.07;;;5.60;99.90;;;;;;10313283;28;20229;-80
2021/11/07 01:48:41;;;;;;;11.80;10.70;;;5.60;99.90;;;;;;10312804;28;20195;-80
2021/11/07 01:53:45;;;;;;;10.17;9.27;;;5.80;99.90;;;;;;10319672;28;20707;-80
2021/11/07 01:58:49;;;;;;;11.30;10.30;;;5.90;99.90;;;;;;10327357;28;20740;-79
2021/11/07 02:03:51;;;;;;;11.87;10.87;;;6.00;99.90;;;;;;10312362;28;20243;-79
2021/11/07 02:08:53;;;;;;;9.70;8.90;;;6.10;99.90;;;;;;10304050;28;20250;-79
2021/11/07 02:13:57;;;;;;;10.80;9.10;;;6.20;99.90;;;;;;10303733;28;20566;-79
2021/11/07 02:19:00;;;;;;;10.27;9.37;;;6.20;99.90;;;;;;10327184;28;20239;-79
2021/11/07 02:24:04;;;;;;;11.13;10.13;;;6.20;99.90;;;;;;10291017;28;20238;-79
2021/11/07 02:29:07;;;;;;;12.70;11.50;;;6.20;99.90;;;;;;10287836;28;20196;-79
2021/11/07 02:34:09;;;;;;;10.30;9.40;;;6.30;99.90;;;;;;10290750;28;20209;-78
2021/11/07 02:39:15;;;;;;;11.30;10.20;;;6.30;99.90;;;;;;10269728;28;20562;-79
2021/11/07 02:44:32;;;;;;;11.17;10.27;;;6.30;99.90;;;;;;10283959;28;20204;-79
2021/11/07 02:49:35;;;;;;;12.47;11.33;;;6.30;99.90;;;;;;10283167;28;20223;-79
2021/11/07 02:54:39;;;;;;;11.40;10.40;;;6.30;99.90;;;;;;10300556;28;20223;-79
2021/11/07 02:59:41;;;;;;;11.37;10.30;;;6.30;99.90;;;;;;10310720;28;20239;-80
2021/11/07 03:04:43;;;;;;;11.50;10.50;;;6.30;99.90;;;;;;10332250;28;20211;-79
2021/11/07 03:09:47;;;;;;;12.70;11.50;;;6.30;99.90;;;;;;10334099;28;20293;-79
2021/11/07 03:14:51;;;;;;;11.80;10.80;;;6.30;99.90;;;;;;10315212;28;20690;-79
2021/11/07 03:19:54;;;;;;;12.07;11.03;;;6.20;99.90;;;;;;10308456;28;20238;-80
2021/11/07 03:24:58;;;;;;;12.90;11.60;;;6.20;99.90;;;;;;10308457;28;20695;-80
2021/11/07 03:30:05;;;;;;;12.60;11.50;;;6.20;99.90;;;;;;10309184;28;20223;-80
2021/11/07 03:35:16;;;;;;;14.60;13.20;;;6.20;99.90;;;;;;10288981;28;20295;-79
2021/11/07 03:40:19;;;;;;;14.27;12.93;;;6.20;99.90;;;;;;10313586;28;20235;-80
2021/11/07 03:45:22;;;;;;;14.10;12.70;;;6.30;99.90;;;;;;10314419;28;20242;-80
2021/11/07 03:50:26;;;;;;;14.07;12.77;;;6.30;99.90;;;;;;10332222;28;20226;-79
2021/11/07 03:55:30;;;;;;;13.80;12.50;;;6.30;99.90;;;;;;10335388;28;20207;-79
2021/11/07 04:00:32;;;;;;;13.60;12.30;;;6.30;99.90;;;;;;10310208;28;20441;-79
2021/11/07 04:05:34;;;;;;;11.80;10.80;;;6.30;99.90;;;;;;10330140;28;20651;-78
2021/11/07 04:10:38;;;;;;;11.13;10.13;;;6.30;99.90;;;;;;10312759;28;20660;-79
2021/11/07 04:15:41;;;;;;;12.03;11.03;;;6.30;99.90;;;;;;10328530;28;20231;-79
2021/11/07 04:20:43;;;;;;;11.97;10.87;;;6.30;99.90;;;;;;10330975;28;20364;-80
2021/11/07 04:25:47;;;;;;;12.67;11.57;;;6.20;99.90;;;;;;10296650;28;20214;-79
2021/11/07 04:30:49;;;;;;;12.70;11.57;;;6.30;99.90;;;;;;10324879;28;20238;-79
2021/11/07 04:35:51;;;;;;;14.70;13.40;;;6.30;99.90;;;;;;10295262;28;20211;-79
2021/11/07 04:40:55;;;;;;;12.10;11.00;;;6.40;99.90;;;;;;10296443;28;20238;-79
2021/11/07 04:45:57;;;;;;;13.30;12.00;;;6.40;99.90;;;;;;10322924;28;20266;-79
2021/11/07 04:50:59;;;;;;;10.97;9.97;;;6.40;99.90;;;;;;10305236;28;20234;-79
2021/11/07 04:56:03;;;;;;;11.33;10.30;;;6.50;99.90;;;;;;10289065;28;20211;-79
2021/11/07 05:01:06;;;;;;;10.03;9.20;;;6.50;99.90;;;;;;10311183;28;20235;-79
2021/11/07 05:06:08;;;;;;;10.13;9.33;;;6.50;99.90;;;;;;10300477;28;20270;-80
2021/11/07 05:11:12;;;;;;;9.80;8.90;;;6.50;99.90;;;;;;10326618;28;20298;-81
2021/11/07 05:16:15;;;;;;;11.40;10.30;;;6.60;99.90;;;;;;10321437;28;20209;-80
2021/11/07 05:21:17;;;;;;;12.10;11.00;;;6.60;99.90;;;;;;10308080;28;20250;-79
2021/11/07 05:26:20;;;;;;;12.60;11.47;;;6.70;99.90;;;;;;10314590;28;20212;-80
2021/11/07 05:31:23;;;;;;;11.50;10.50;;;6.70;99.90;;;;;;10336096;28;20812;-79
2021/11/07 05:36:26;;;;;;;12.23;11.17;;;6.70;99.90;;;;;;10310756;28;20239;-79
2021/11/07 05:41:30;;;;;;;11.37;10.37;;;6.70;99.90;;;;;;10299220;28;20330;-79
2021/11/07 05:46:32;;;;;;;11.47;10.37;;;6.80;99.90;;;;;;10319736;28;20222;-80
2021/11/07 05:51:36;;;;;;;11.30;10.30;;;6.80;99.90;;;;;;10325523;28;20235;-80
2021/11/07 05:56:40;;;;;;;12.00;10.90;;;6.80;99.90;;;;;;10307798;28;20298;-79
2021/11/07 06:01:42;;;;;;;11.47;10.37;;;6.80;99.90;;;;;;10287318;28;20308;-78
2021/11/07 06:06:44;;;;;;;11.50;10.40;;;6.80;99.90;;;;;;10290266;28;20204;-79
2021/11/07 06:11:47;;;;;;;12.97;11.63;;;6.70;99.90;;;;;;10301007;28;20239;-78
2021/11/07 06:16:49;;;;;;;11.73;10.70;;;6.70;99.90;;;;;;10286398;28;20203;-79
2021/11/07 06:21:53;;;;;;;12.50;11.40;;;6.70;99.90;;;;;;10294701;28;20231;-79
2021/11/07 06:26:58;;;;;;;12.77;11.53;;;6.70;99.90;;;;;;10333678;28;20238;-79
2021/11/07 06:32:01;;;;;;;12.90;11.70;;;6.70;99.90;;;;;;10331975;28;20711;-79
2021/11/07 06:37:04;;;;;;;15.10;13.67;;;6.70;99.90;;;;;;10315873;28;20294;-81
2021/11/07 06:42:08;;;;;;;14.37;12.97;;;6.60;99.90;;;;;;10311772;28;20294;-82
2021/11/07 06:47:12;;;;;;;14.80;13.27;;;6.50;99.90;;;;;;10334770;28;20247;-82
2021/11/07 06:52:14;;;;;;;12.50;11.30;;;6.60;99.90;;;;;;10295885;28;20259;-82
2021/11/07 06:57:17;;;;;;;13.07;11.87;;;6.60;99.90;;;;;;10297400;28;20612;-82
2021/11/07 07:02:19;;;;;;;13.70;12.50;;;6.70;99.90;;;;;;10311445;28;20242;-80
2021/11/07 07:07:28;;;;;;;13.90;12.60;;;6.80;99.90;;;;;;10311941;28;20239;-82
2021/11/07 07:12:38;;;;;;;13.53;12.23;;;6.80;99.90;;;;;;10319053;28;20295;-80
2021/11/07 07:17:46;;;;;;;13.00;11.80;;;6.90;99.90;;;;;;10317829;28;20215;-82
2021/11/07 07:33:33;;;;;;;13.73;11.73;;;7.20;99.90;;;;;;10302554;28;20237;-82
2021/11/07 07:38:35;;;;;;;13.97;12.70;;;7.30;99.90;;;;;;10304732;28;20223;-82
2021/11/07 07:43:39;;;;;;;15.20;13.70;;;7.40;99.90;;;;;;10314496;28;20253;-82
2021/11/07 07:48:43;;;;;;;15.30;13.77;;;7.50;99.90;;;;;;10334626;28;20258;-80
2021/11/07 07:53:46;;;;;;;15.90;14.30;;;7.60;99.90;;;;;;10297738;28;20278;-81
2021/11/07 07:58:50;;;;;;;15.30;13.90;;;7.80;99.90;;;;;;10300387;28;20286;-83
2021/11/07 08:03:52;;;;;;;14.80;13.40;;;8.00;99.90;;;;;;10328531;28;20235;-82
2021/11/07 08:08:55;;;;;;;14.80;13.40;;;8.20;99.90;;;;;;10318546;28;20286;-83
2021/11/07 08:13:58;;;;;;;13.10;11.90;;;8.30;99.90;;;;;;10301624;28;20234;-81
2021/11/07 08:19:00;;;;;;;12.83;11.70;;;8.30;99.90;;;;;;10311861;28;20298;-80
2021/11/07 08:24:04;;;;;;;11.07;10.07;;;8.30;99.90;;;;;;10323838;28;20541;-81
2021/11/07 08:29:10;;;;;;;10.37;9.47;;;8.40;99.90;;;;;;10341176;28;20204;-79
2021/11/07 08:34:12;;;;;;;10.17;9.27;;;8.40;99.90;;;;;;10305470;28;20241;-81
2021/11/07 08:39:17;;;;;;;9.50;8.70;;;8.50;99.90;;;;;;10327880;28;20581;-81
2021/11/07 09:00:27;;;;;;;8.90;8.00;;;8.60;99.90;;;;;;10303124;28;20228;-81
2021/11/07 09:05:32;;;;;;;9.70;8.80;;;8.70;99.90;;;;;;10307958;28;20660;-81
2021/11/07 09:10:37;;;;;;;9.73;8.83;;;8.80;99.90;;;;;;10294812;28;20219;-80
2021/11/07 09:15:42;;;;;;;10.80;9.70;;;8.90;99.90;;;;;;10345933;28;20206;-81
2021/11/07 09:20:50;;;;;;;8.73;7.93;;;9.00;99.90;;;;;;10342228;28;20241;-81
2021/11/07 09:26:08;;;;;;;8.47;7.67;;;9.10;99.90;;;;;;10325452;28;20203;-81
2021/11/07 09:31:16;;;;;;;8.40;7.70;;;9.20;99.90;;;;;;10342617;28;20290;-81
2021/11/07 09:36:23;;;;;;;9.07;8.20;;;9.40;99.90;;;;;;10323937;28;20207;-81
2021/11/07 09:41:35;;;;;;;7.87;7.17;;;9.70;99.90;;;;;;10328772;28;20325;-81
2021/11/07 09:46:42;;;;;;;7.67;6.97;;;9.80;99.90;;;;;;10324303;28;20310;-81
2021/11/07 09:51:49;;;;;;;7.57;6.87;;;9.80;99.90;;;;;;10308604;28;20219;-81
2021/11/07 09:56:54;;;;;;;6.87;6.30;;;10.00;99.90;;;;;;10323359;28;20283;-81
2021/11/07 10:02:00;;;;;;;6.27;5.77;;;10.20;99.90;;;;;;10336565;28;20227;-81
2021/11/07 10:07:13;;;;;;;5.23;4.83;;;10.40;99.90;;;;;;10321849;28;20271;-81
2021/11/07 10:12:20;;;;;;;4.60;4.23;;;10.60;99.90;;;;;;10299606;28;20235;-81
2021/11/07 10:17:31;;;;;;;4.80;4.50;;;10.80;99.90;;;;;;10330246;28;20211;-81
2021/11/07 10:22:35;;;;;;;4.60;4.30;;;10.80;99.90;;;;;;10318015;28;20235;-80
2021/11/07 10:27:40;;;;;;;4.60;4.20;;;11.00;99.90;;;;;;10304128;28;20226;-81
2021/11/07 10:32:56;;;;;;;4.57;4.27;;;11.10;99.90;;;;;;10311570;28;20668;-81
2021/11/07 10:38:11;;;;;;;4.23;3.93;;;11.10;99.90;;;;;;10334648;28;20214;-80
2021/11/07 10:54:16;;;;;;;3.37;3.17;;;11.40;99.90;;;;;;10312448;28;20247;-81
2021/11/07 10:59:18;;;;;;;3.60;3.30;;;11.50;99.90;;;;;;10317510;28;20635;-81
2021/11/07 11:04:23;;;;;;;3.43;3.23;;;11.60;99.90;;;;;;10301106;28;20278;-81
2021/11/07 11:09:27;;;;;;;3.63;3.40;;;11.60;99.90;;;;;;10302564;28;20211;-81
2021/11/07 11:14:33;;;;;;;3.73;3.53;;;11.60;99.90;;;;;;10310907;28;20207;-81
2021/11/07 11:19:53;;;;;;;4.93;3.23;;;11.70;99.90;;;;;;10313373;28;20282;-81
2021/11/07 11:36:13;;;;;;;2.90;2.70;;;11.90;99.90;;;;;;10199894;29;20292;-82
2021/11/07 11:41:21;;;;;;;3.07;2.87;;;12.00;99.90;;;;;;10298294;28;20249;-82
2021/11/07 11:46:37;;;;;;;2.77;2.63;;;12.00;99.90;;;;;;10333683;28;20207;-81
2021/11/07 11:51:58;;;;;;;2.50;2.40;;;12.10;99.90;;;;;;10327430;28;20223;-81
2021/11/07 11:57:22;;;;;;;2.20;2.10;;;12.10;99.90;;;;;;10297218;28;20213;-81
2021/11/07 12:02:30;;;;;;;2.33;2.13;;;12.10;99.90;;;;;;10364418;23;20262;-81
2021/11/07 12:07:37;;;;;;;1.93;1.80;;;12.00;99.90;;;;;;10340797;28;20203;-81
2021/11/07 12:12:47;;;;;;;1.77;1.67;;;11.80;99.90;;;;;;10341444;28;20227;-81
2021/11/07 12:18:00;;;;;;;2.00;1.90;;;11.80;99.90;;;;;;10337836;28;20223;-81
2021/11/07 12:23:18;;;;;;;2.03;1.90;;;11.70;99.90;;;;;;10321987;28;20250;-81
2021/11/07 12:28:40;;;;;;;1.83;1.73;;;11.70;99.90;;;;;;10356220;28;20235;-81
2021/11/07 12:33:50;;;;;;;2.07;1.97;;;11.70;99.90;;;;;;10338842;28;20223;-82
2021/11/07 12:44:25;;;;;;;1.70;1.60;;;11.90;99.90;;;;;;10323981;28;20617;-81
2021/11/07 12:49:29;;;;;;;1.90;1.80;;;12.10;99.90;;;;;;10349957;28;20231;-81
2021/11/07 12:54:34;;;;;;;2.23;1.63;;;12.20;99.90;;;;;;10338871;28;20224;-81
2021/11/07 12:59:39;;;;;;;1.70;1.60;;;12.30;99.90;;;;;;10329798;28;20227;-81
2021/11/07 13:04:50;;;;;;;1.53;1.43;;;12.30;99.90;;;;;;10302561;28;20227;-82
2021/11/07 13:09:58;;;;;;;1.60;1.60;;;12.40;99.90;;;;;;10312572;28;20207;-81
2021/11/07 13:26:05;;;;;;;1.70;1.60;;;12.80;99.90;;;;;;10300221;28;20208;-81
2021/11/07 13:31:12;;;;;;;1.40;1.40;;;12.80;99.90;;;;;;10334911;28;20235;-81
2021/11/07 13:36:17;;;;;;;1.70;1.60;;;12.70;99.90;;;;;;10336295;28;20211;-81
2021/11/07 13:41:25;;;;;;;1.50;1.40;;;12.70;99.90;;;;;;10327154;28;20246;-81
2021/11/07 13:46:28;;;;;;;1.67;1.60;;;12.70;99.90;;;;;;10310067;28;20456;-81
2021/11/07 13:51:31;;;;;;;2.00;1.80;;;12.70;99.90;;;;;;10334052;28;20683;-81
2021/11/07 13:56:34;;;;;;;1.90;1.80;;;12.70;99.90;;;;;;10332242;28;20231;-82
2021/11/07 14:01:36;;;;;;;1.93;1.63;;;12.60;99.90;;;;;;10327017;28;20239;-82
2021/11/07 14:06:40;;;;;;;1.83;1.60;;;12.60;99.90;;;;;;10343233;28;20678;-82
2021/11/07 14:11:48;;;;;;;1.80;1.70;;;12.50;99.90;;;;;;10319191;28;20235;-82
2021/11/07 14:16:55;;;;;;;1.90;1.80;;;12.50;99.90;;;;;;10319159;28;20306;-82
2021/11/07 14:22:02;;;;;;;1.77;1.67;;;12.40;99.90;;;;;;10328490;28;20322;-82
2021/11/07 14:27:08;;;;;;;2.50;2.37;;;12.30;99.90;;;;;;10324938;28;20218;-82
2021/11/07 14:32:17;;;;;;;1.80;1.70;;;12.30;99.90;;;;;;10342883;28;20247;-82
2021/11/07 14:37:26;;;;;;;2.10;2.00;;;12.20;99.90;;;;;;10347439;28;20195;-82
2021/11/07 14:42:41;;;;;;;2.93;2.47;;;12.20;99.90;;;;;;10328911;28;20302;-82
2021/11/07 14:48:03;;;;;;;2.13;2.03;;;12.10;99.90;;;;;;10340398;28;20211;-82
2021/11/07 14:53:09;;;;;;;7.33;6.47;;;12.10;99.90;;;;;;10324064;28;20250;-81
2021/11/07 14:58:27;;;;;;;5.47;4.90;;;12.10;99.90;;;;;;10322142;28;20215;-82
2021/11/07 15:03:33;;;;;;;3.47;2.53;;;12.00;99.90;;;;;;10303032;28;20256;-82
2021/11/07 15:08:49;;;;;;;2.10;2.00;;;11.90;99.90;;;;;;10343984;28;20203;-82
2021/11/07 15:13:57;;;;;;;1.90;1.80;;;11.90;99.90;;;;;;10319514;28;20262;-82
2021/11/07 15:19:03;;;;;;;2.10;2.00;;;11.90;99.90;;;;;;10331205;28;20583;-82
2021/11/07 15:24:12;;;;;;;2.40;2.30;;;11.80;99.90;;;;;;10303426;28;20699;-82
2021/11/07 15:29:17;;;;;;;1.70;1.60;;;11.80;99.90;;;;;;10324434;28;20882;-82
2021/11/07 15:34:29;;;;;;;2.17;2.03;;;11.60;99.90;;;;;;10328816;28;20219;-82
2021/11/07 15:39:33;;;;;;;1.90;1.80;;;11.50;99.90;;;;;;10286105;28;20227;-82
2021/11/07 15:44:41;;;;;;;2.13;1.93;;;11.40;99.90;;;;;;10293870;28;20235;-82
2021/11/07 15:49:47;;;;;;;2.87;2.67;;;11.40;99.90;;;;;;10307660;28;20210;-82
2021/11/07 15:54:55;;;;;;;3.93;3.60;;;11.40;99.90;;;;;;10295120;28;20215;-83
2021/11/07 16:00:17;;;;;;;3.20;3.00;;;11.40;99.90;;;;;;10312151;28;20261;-82
2021/11/07 16:05:33;;;;;;;2.80;2.60;;;11.30;99.90;;;;;;10322888;28;20601;-82
2021/11/07 16:10:44;;;;;;;3.80;2.97;;;11.20;99.90;;;;;;10301825;28;20292;-81
2021/11/07 16:15:54;;;;;;;3.13;2.93;;;11.20;99.90;;;;;;10299533;28;20242;-81
2021/11/07 16:20:57;;;;;;;3.63;3.33;;;11.20;99.90;;;;;;10321980;28;20251;-81
2021/11/07 16:26:03;;;;;;;3.47;3.00;;;11.20;99.90;;;;;;10301057;28;20207;-81
2021/11/07 16:31:10;;;;;;;3.20;3.00;;;11.20;99.90;;;;;;10342639;28;20231;-81
2021/11/07 16:36:13;;;;;;;3.57;3.37;;;11.20;99.90;;;;;;10339377;28;20250;-81
2021/11/07 16:41:20;;;;;;;4.57;4.00;;;11.20;99.90;;;;;;10337793;28;20290;-81
2021/11/07 16:46:27;;;;;;;3.20;3.00;;;11.20;99.90;;;;;;10321785;28;20231;-82
2021/11/07 16:51:32;;;;;;;4.80;3.10;;;11.10;99.90;;;;;;10311107;28;20235;-81
2021/11/07 16:56:36;;;;;;;3.60;3.40;;;11.10;99.90;;;;;;10292723;28;20199;-82
2021/11/07 17:01:45;;;;;;;4.27;3.93;;;11.10;99.90;;;;;;10309211;28;20266;-81
2021/11/07 17:06:52;;;;;;;3.40;3.10;;;11.10;99.90;;;;;;10298426;28;20200;-82
2021/11/07 17:11:56;;;;;;;3.77;3.50;;;11.00;99.90;;;;;;10310063;28;20219;-82
2021/11/07 17:17:03;;;;;;;3.83;3.53;;;11.00;99.90;;;;;;10325732;28;20622;-82
2021/11/07 17:22:14;;;;;;;3.63;3.43;;;11.00;99.90;;;;;;10292272;28;20703;-82
2021/11/07 17:27:27;;;;;;;4.17;3.80;;;10.90;99.90;;;;;;10325815;28;20204;-82
2021/11/07 17:32:34;;;;;;;3.40;3.10;;;10.80;99.90;;;;;;10300475;28;20295;-82
2021/11/07 17:37:41;;;;;;;3.63;3.33;;;10.80;99.90;;;;;;10302744;28;20203;-82
2021/11/07 17:58:44;;;;;;;4.23;3.93;;;10.70;99.90;;;;;;10320171;28;20298;-82
2021/11/07 18:03:51;;;;;;;4.90;4.50;;;10.70;99.90;;;;;;10343441;23;20252;-81
2021/11/07 18:08:58;;;;;;;7.00;5.93;;;10.70;99.90;;;;;;10295479;28;20203;-81
2021/11/07 18:14:09;;;;;;;5.63;5.13;;;10.70;99.90;;;;;;10306599;28;20238;-81
2021/11/07 18:19:29;;;;;;;4.73;4.30;;;10.70;99.90;;;;;;10292955;28;20293;-82
2021/11/07 18:30:33;;;;;;;2.60;2.50;;;10.70;99.90;;;;;;10308425;28;20230;-81
2021/11/07 18:35:40;;;;;;;2.63;2.50;;;10.60;99.90;;;;;;10289633;28;20246;-81
2021/11/07 18:40:45;;;;;;;2.63;2.53;;;10.50;99.90;;;;;;10313193;28;20810;-81
2021/11/07 18:45:55;;;;;;;3.00;2.90;;;10.50;99.90;;;;;;10305609;28;20295;-81
2021/11/07 18:51:02;;;;;;;2.53;2.40;;;10.50;99.90;;;;;;10305475;28;20302;-81
2021/11/07 18:56:05;;;;;;;2.60;2.40;;;10.50;99.90;;;;;;10284330;28;20238;-81
2021/11/07 19:01:07;;;;;;;2.60;2.43;;;10.40;99.90;;;;;;10309376;28;20242;-81
2021/11/07 19:06:14;;;;;;;2.77;2.57;;;10.40;99.90;;;;;;10309546;28;20654;-81
2021/11/07 19:11:26;;;;;;;2.50;2.40;;;10.40;99.90;;;;;;10326894;28;20283;-82
2021/11/07 19:16:33;;;;;;;2.67;2.47;;;10.40;99.90;;;;;;10306207;28;20212;-82
2021/11/07 19:21:49;;;;;;;2.40;2.30;;;10.40;99.90;;;;;;10294883;28;20767;-81
2021/11/07 19:26:56;;;;;;;5.00;3.10;;;10.50;99.90;;;;;;10309744;28;20229;-82
2021/11/07 19:32:07;;;;;;;3.20;2.90;;;10.50;99.90;;;;;;10331509;28;20223;-81
2021/11/07 19:37:20;;;;;;;4.10;3.80;;;10.60;99.90;;;;;;10301463;28;20265;-82
2021/11/07 19:42:28;;;;;;;3.80;3.50;;;10.70;99.90;;;;;;10313175;28;20219;-82
2021/11/07 19:47:40;;;;;;;4.00;3.70;;;10.70;99.90;;;;;;10275702;28;20569;-82
2021/11/07 19:52:45;;;;;;;4.83;4.43;;;10.80;99.90;;;;;;10253564;28;20656;-81
2021/11/07 19:57:48;;;;;;;4.40;4.10;;;10.80;99.90;;;;;;10331349;28;20207;-82
2021/11/07 20:03:02;;;;;;;5.57;5.17;;;10.80;99.90;;;;;;10294586;28;20235;-82
2021/11/07 20:08:27;;;;;;;5.17;4.77;;;10.80;99.90;;;;;;10324335;28;20282;-81
2021/11/07 20:13:29;;;;;;;5.40;4.97;;;10.80;99.90;;;;;;10301640;28;20238;-81
2021/11/07 20:18:31;;;;;;;8.10;7.40;;;10.90;99.90;;;;;;10310396;28;20642;-81
2021/11/07 20:23:39;;;;;;;4.50;4.10;;;10.90;99.90;;;;;;10309749;28;20722;-81
2021/11/07 20:28:42;;;;;;;3.90;3.60;;;10.90;99.90;;;;;;10293455;28;20207;-81
2021/11/07 20:33:45;;;;;;;4.43;4.13;;;10.90;99.90;;;;;;10306847;28;20596;-81
2021/11/07 20:38:52;;;;;;;4.67;4.20;;;10.90;99.90;;;;;;10308542;28;20706;-81
2021/11/07 20:43:58;;;;;;;5.03;4.10;;;10.80;99.90;;;;;;10343885;28;20307;-81
2021/11/07 20:49:09;;;;;;;5.40;4.90;;;10.80;99.90;;;;;;10320667;28;20592;-81
2021/11/07 20:54:17;;;;;;;4.80;4.40;;;10.80;99.90;;;;;;10343317;28;20223;-82
2021/11/07 20:59:32;;;;;;;5.37;4.17;;;10.80;99.90;;;;;;10342997;28;20218;-82
2021/11/07 21:04:39;;;;;;;5.50;5.10;;;10.80;99.90;;;;;;10315176;28;20219;-82
2021/11/07 21:09:51;;;;;;;5.30;5.00;;;10.70;99.90;;;;;;10290370;28;20223;-82
2021/11/07 21:15:04;;;;;;;5.30;4.90;;;10.70;99.90;;;;;;10331767;28;20223;-82
2021/11/07 21:26:03;;;;;;;4.40;4.10;;;10.50;99.90;;;;;;10304377;28;20325;-81
2021/11/07 21:31:07;;;;;;;3.87;3.67;;;10.50;99.90;;;;;;10328979;28;20238;-83
2021/11/07 21:36:18;;;;;;;4.53;4.33;;;10.50;99.90;;;;;;10314179;28;20203;-82
2021/11/07 21:41:28;;;;;;;4.53;4.23;;;10.40;99.90;;;;;;10338626;28;20565;-82
2021/11/07 21:46:35;;;;;;;5.47;4.97;;;10.40;99.90;;;;;;10328784;28;20213;-82
2021/11/07 21:51:37;;;;;;;5.17;4.70;;;10.40;99.90;;;;;;10304469;28;20224;-82
2021/11/07 21:56:42;;;;;;;5.57;5.03;;;10.40;99.90;;;;;;10331954;28;20207;-82
2021/11/07 22:01:44;;;;;;;5.53;5.03;;;10.40;99.90;;;;;;10306787;28;20228;-82
2021/11/07 22:06:47;;;;;;;6.03;5.53;;;10.50;99.90;;;;;;10335599;28;20274;-81
2021/11/07 22:11:53;;;;;;;6.13;5.63;;;10.50;99.90;;;;;;10339511;28;20691;-80
2021/11/07 22:17:00;;;;;;;5.93;5.43;;;10.50;99.90;;;;;;10324072;28;20219;-80
2021/11/07 22:22:08;;;;;;;8.10;7.20;;;10.50;99.90;;;;;;10304202;28;20742;-80
2021/11/07 22:27:13;;;;;;;6.30;5.70;;;10.50;99.90;;;;;;10290868;28;20632;-81
2021/11/07 22:32:17;;;;;;;7.30;6.30;;;10.50;99.90;;;;;;10316089;28;20584;-80
2021/11/07 22:37:20;;;;;;;5.80;5.30;;;10.50;99.90;;;;;;10288328;28;20235;-80
2021/11/07 22:42:27;;;;;;;6.90;5.80;;;10.50;99.90;;;;;;10311125;28;20310;-80
2021/11/07 22:47:31;;;;;;;6.40;5.60;;;10.50;99.90;;;;;;10318039;28;20243;-80
2021/11/07 22:52:41;;;;;;;6.50;5.00;;;10.60;99.90;;;;;;10341721;28;20223;-80
2021/11/07 22:57:53;;;;;;;8.80;5.20;;;10.60;99.90;;;;;;10322955;28;20588;-81
2021/11/07 23:03:08;;;;;;;5.50;5.00;;;10.60;99.90;;;;;;10343430;28;20227;-80
2021/11/07 23:08:47;;;;;;;6.33;5.30;;;10.60;99.90;;;;;;10322593;28;20214;-80
2021/11/07 23:13:51;;;;;;;6.83;6.10;;;10.60;99.90;;;;;;10316941;28;20282;-80
2021/11/07 23:18:54;;;;;;;6.53;5.73;;;10.60;99.90;;;;;;10304341;28;20534;-80
2021/11/07 23:23:56;;;;;;;8.27;6.10;;;10.60;99.90;;;;;;10294092;28;20235;-80
2021/11/07 23:29:01;;;;;;;6.90;6.00;;;10.60;99.90;;;;;;10293119;28;20275;-80
2021/11/07 23:34:04;;;;;;;7.40;5.70;;;10.70;99.90;;;;;;10314130;28;20225;-80
2021/11/07 23:39:12;;;;;;;8.13;6.33;;;10.60;99.90;;;;;;10288241;28;20204;-80
2021/11/07 23:44:19;;;;;;;6.20;5.60;;;10.70;99.90;;;;;;10308240;28;20562;-80
2021/11/07 23:49:22;;;;;;;8.90;5.80;;;10.70;99.90;;;;;;10286151;28;20672;-80
2021/11/07 23:54:26;;;;;;;8.13;6.37;;;10.70;99.90;;;;;;10290306;28;20253;-80
2021/11/07 23:59:31;;;;;;;8.27;6.50;;;10.70;99.90;;;;;;10290052;28;20355;-81
